HALF-HOURLY OBSERVATIONS INDEX

067

Sydney Metropolitan - west

BADGERYS CREEK AWS

Site: 067108
Alt: 81.2m
43km ESE of KATOOMBA


  Time     Wind        Temp  DP   Baro     Rain since   Rain past  Vis(m), Cloud(base in m), Weather
  local        km/h                         9am  last   hr   10m    
Sun 10:00  NNE  2/  6  19.5 13.7  1004.9    0.0   0.0   0.0   0.0   ----- 
Sun 10:30    N  2/  6  19.6 13.5  1004.9    0.0   0.0   0.0   0.0   ----- 
Sun 11:00    C  0/  7  19.2 13.4  1005.0    0.0   0.0   0.0   0.0   ----- 
Sun 11:30    N  4/  7  19.3 13.7  1004.3    0.0   0.0   0.0   0.0   ----- 
Sun 12:00  NNW  6/  7  19.8 14.4  1004.1    0.0   0.0   0.0   0.0   ----- 
Sun 12:30    C  0/  0  19.8 14.0  1003.6    0.0   0.0   0.0   0.0   ----- 
Sun 13:00  NNW  6/  7  19.7 14.7  1003.3    0.0   0.0   0.0   0.0   ----- 
Sun 13:30  NNW  6/  9  22.3 17.0  1002.6    0.0   0.0   0.0   0.0   ----- 
Sun 14:00   SW  4/  9  23.9 15.7  1002.3    0.0   0.0   0.0   0.0   ----- 
Sun 14:30   SE  7/ 11  25.4 16.0  1001.5    0.0   0.0   0.0   0.0   ----- 
Sun 15:00    E  4/ 11  27.4 17.3  1001.1    0.0   0.0   0.0   0.0   ----- 
Sun 15:30    E  6/  7  26.5 16.4  1000.6    0.0   0.0   0.0   0.0   ----- 

HORSLEY PARK EQUESTRIAN CENTRE AWS

Site: 067119
Alt: 100.0m
33km W of SYDNEY CBD


  Time     Wind        Temp  DP   Baro     Rain since   Rain past  Vis(m), Cloud(base in m), Weather
  local        km/h                         9am  last   hr   10m    
Sun 10:00  NNW  6/ 11  19.5 13.0  ------    0.0   0.0   0.0   0.0   ----- 
Sun 10:30  NNE  2/  7  20.4 13.4  ------    0.0   0.0   0.0   0.0   ----- 
Sun 11:00  NNW  6/  9  20.9 13.1  ------    0.0   0.0   0.0   0.0   ----- 
Sun 11:30   SW  6/  9  20.6 13.8  ------    0.0   0.0   0.0   0.0   ----- 
Sun 12:00    C  0/  0  21.3 13.7  ------    0.0   0.0   0.0   0.0   ----- 
Sun 12:30  SSE  2/  7  22.0 14.6  ------    0.0   0.0   0.0   0.0   ----- 
Sun 13:00    C  0/  0  23.1 14.4  ------    0.0   0.0   0.0   0.0   ----- 
Sun 13:30    C  0/  0  24.1 15.1  ------    0.0   0.0   0.0   0.0   ----- 
Sun 14:00    C  0/  0  25.9 14.7  ------    0.0   0.0   0.0   0.0   ----- 
Sun 14:30   SE  4/  9  27.4 15.4  ------    0.0   0.0   0.0   0.0   ----- 
Sun 15:00   NE  9/ 19  28.6 12.5  ------    0.0   0.0   0.0   0.0   ----- 
Sun 15:30  NNE  7/ 13  28.3 11.8  ------    0.0   0.0   0.0   0.0   ----- 

PENRITH LAKES AWS

Site: 067113
Alt: 24.7m
33km E of KATOOMBA


  Time     Wind        Temp  DP   Baro     Rain since   Rain past  Vis(m), Cloud(base in m), Weather
  local        km/h                         9am  last   hr   10m    
Sun 10:00    W  2/  6  19.0 14.1  ------    0.0   0.0   0.0   0.0   ----- 
Sun 10:30   NW  2/  6  18.7 14.0  ------    0.0   0.0   0.0   0.0   ----- 
Sun 11:00   SW  2/  6  19.1 14.6  ------    0.0   0.0   0.0   0.0   ----- 
Sun 11:30  SSW  6/  7  19.3 14.8  ------    0.0   0.0   0.0   0.0   ----- 
Sun 12:00  SSW  4/  6  20.1 14.9  ------    0.0   0.0   0.0   0.0   ----- 
Sun 12:30  SSW  4/  7  20.2 15.0  ------    0.0   0.0   0.0   0.0   ----- 
Sun 13:00   SW  6/  7  20.8 15.6  ------    0.0   0.0   0.0   0.0   ----- 
Sun 13:30  SSE  6/  9  23.2 16.7  ------    0.0   0.0   0.0   0.0   ----- 
Sun 14:00    S  9/ 13  25.3 16.7  ------    0.0   0.0   0.0   0.0   ----- 
Sun 14:30  SSW  9/ 13  25.9 17.0  ------    0.0   0.0   0.0   0.0   ----- 
Sun 15:00  SSW  6/  9  24.7 16.4  ------    0.0   0.0   0.0   0.0   ----- 
Sun 15:30   SW  7/  9  24.8 17.0  ------    0.0   0.0   0.0   0.0   ----- 

RICHMOND RAAF

Site: 067105
Alt: 19.0m
44km ENE of KATOOMBA


  Time     Wind        Temp  DP   Baro     Rain since   Rain past  Vis(m), Cloud(base in m), Weather
  local        km/h                         9am  last   hr   10m    
Sun 10:00   SE  4/  9  20.0 15.4  1004.4    0.0   0.0   0.0   0.0   10000 
Sun 10:30  WSW  2/  9  20.2 15.4  1004.6    0.0   0.0   0.0   0.0   10000 
Sun 11:00    C  0/ 11  21.1 16.1  1004.1    0.0   0.0   0.0   0.0   10000|SC2730 SC3300 
Sun 11:30   SW  9/ 13  21.2 16.0  1004.0    0.0   0.0   0.0   0.0   10000 
Sun 12:00  SSW 13/ 17  21.0 16.2  1003.5    0.0   0.0   0.0   0.0   10000|SC3750 
Sun 12:30   SW 11/ 13  21.3 16.5  1003.2    0.0   0.0   0.0   0.0   10000 
Sun 13:00  WSW  9/ 11  21.4 16.4  1002.7    0.0   0.0   0.0   0.0   10000 
Sun 13:30    W  7/ 11  22.1 16.8  1002.2    0.0   0.0   0.0   0.0   10000 
Sun 14:00   SW  9/ 13  24.6 17.8  1001.6    0.0   0.0   0.0   0.0   10000 
Sun 14:30  SSW  9/ 13  26.6 16.8  1001.0    0.0   0.0   0.0   0.0   10000|BR3750 
Sun 15:00   SW 13/ 19  24.9 17.4  1000.7    0.0   0.0   0.0   0.0   10000|SC1470 SC2070 BR3750 
Sun 15:30  WSW  9/ 13  25.7 17.9  1000.2    0.0   0.0   0.0   0.0   10000 

WENTWORTHVILLE

Site: 067WNT
Alt: m
3km NW of PARRAMATTA


  Time     Wind        Temp  DP   Baro     Rain since   Rain past  Vis(m), Cloud(base in m), Weather
  local        km/h                         9am  last   hr   10m    
Sun 10:00    S  2/  6  22.4 14.3  1003.8   ----  ----  ----  ----   10000 
Sun 10:30    S  4/  6  23.3 14.3  1003.3   ----  ----  ----  ----   10000 
Sun 11:00   SW  4/  6  23.7 14.9  1003.5   ----  ----  ----  ----   10000 
Sun 11:30    W  4/  6  23.5 14.5  1003.2   ----  ----  ----  ----   10000 
Sun 12:00  SSW  2/  6  24.6 15.0  1002.8   ----  ----  ----  ----   10000 
Sun 12:30  SSW  2/  6  26.1 15.2  1002.4   ----  ----  ----  ----   10000 
Sun 13:00    E  6/  6  26.4 15.4  1001.8   ----  ----  ----  ----   10000 
Sun 13:30  ESE  4/  6  27.8 15.8  1001.3   ----  ----  ----  ----   10000 
Sun 14:00    E  4/  6  28.0 16.0  1000.9   ----  ----  ----  ----   10000 
Sun 14:30  ESE  6/  6  29.7 15.8  1000.4   ----  ----  ----  ----   10000 
Sun 15:00    E  6/  7  28.9 16.5  1000.0   ----  ----  ----  ----   10000 
Sun 15:30    E  6/  7  28.6 16.5   999.6   ----   0.0   0.0  ----   10000